Time,TemperatureF,DewpointF,PressureIn,WindDirection,WindDirectionDegrees,WindSpeedMPH,WindSpeedGustMPH,Humidity,HourlyPrecipIn,Conditions,Clouds,dailyrainin,SolarRadiationWatts/m^2,SoftwareType,DateUTC
2013-06-07 10:00:00,69.0,53.0,-100.00,East,94,3.0,5.0,57,-99.99,,,-99.99,589.469971,,2013-06-07 17:00:00,
2013-06-07 10:42:00,69.0,53.0,-100.00,East,94,3.0,5.0,57,-99.99,,,-99.99,589.469971,,2013-06-07 17:42:00,
2013-06-07 10:52:00,69.0,53.0,-100.00,East,94,3.0,5.0,57,-99.99,,,-99.99,589.469971,,2013-06-07 17:52:00,
2013-06-07 12:00:00,80.0,43.0,-100.00,West,259,6.0,13.0,27,-99.99,,,-99.99,940.219971,,2013-06-07 19:00:00,
2013-06-07 12:45:00,80.0,43.0,-100.00,West,259,6.0,13.0,27,-99.99,,,-99.99,940.219971,,2013-06-07 19:45:00,
2013-06-07 12:57:00,80.0,43.0,-100.00,West,259,6.0,13.0,27,-99.99,,,-99.99,940.219971,,2013-06-07 19:57:00,
2013-06-07 14:00:00,81.0,48.0,-100.00,West,264,14.0,27.0,32,-99.99,,,-99.99,939.059998,,2013-06-07 21:00:00,
2013-06-07 14:38:00,81.0,48.0,-100.00,West,264,14.0,27.0,32,-99.99,,,-99.99,939.059998,,2013-06-07 21:38:00,
2013-06-07 14:44:00,81.0,48.0,-100.00,West,264,14.0,27.0,32,-99.99,,,-99.99,939.059998,,2013-06-07 21:44:00,
2013-06-07 16:35:00,81.0,48.0,-100.00,West,271,12.0,26.0,31,-99.99,,,-99.99,578.659973,,2013-06-07 23:35:00,
2013-06-07 18:00:00,83.0,36.0,-100.00,WNW,295,11.0,20.0,18,-99.99,,,-99.99,443.380005,,2013-06-08 01:00:00,
2013-06-07 18:37:00,83.0,36.0,-100.00,WNW,295,11.0,20.0,18,-99.99,,,-99.99,443.380005,,2013-06-08 01:37:00,
2013-06-07 18:44:00,83.0,36.0,-100.00,WNW,295,11.0,20.0,18,-99.99,,,-99.99,443.380005,,2013-06-08 01:44:00,
2013-06-07 18:58:00,83.0,36.0,-100.00,WNW,295,11.0,20.0,18,-99.99,,,-99.99,443.380005,,2013-06-08 01:58:00,
2013-06-07 20:00:00,75.0,29.0,-100.00,West,265,15.0,26.0,18,-99.99,,,-99.99,112.970001,,2013-06-08 03:00:00,
2013-06-07 20:36:00,75.0,29.0,-100.00,West,265,15.0,26.0,18,-99.99,,,-99.99,112.970001,,2013-06-08 03:36:00,
2013-06-07 20:49:00,75.0,29.0,-100.00,West,265,15.0,26.0,18,-99.99,,,-99.99,112.970001,,2013-06-08 03:49:00,
2013-06-07 20:59:00,75.0,29.0,-100.00,West,265,15.0,26.0,18,-99.99,,,-99.99,112.970001,,2013-06-08 03:59:00,
2013-06-07 22:00:00,66.0,41.0,-100.00,WNW,293,3.0,14.0,39,-99.99,,,-99.99,0.000000,,2013-06-08 05:00:00,
2013-06-07 22:32:00,66.0,41.0,-100.00,WNW,293,3.0,14.0,39,-99.99,,,-99.99,0.000000,,2013-06-08 05:32:00,
2013-06-07 22:42:00,66.0,41.0,-100.00,WNW,293,3.0,14.0,39,-99.99,,,-99.99,0.000000,,2013-06-08 05:42:00,
2013-06-07 22:52:00,66.0,41.0,-100.00,WNW,293,3.0,14.0,39,-99.99,,,-99.99,0.000000,,2013-06-08 05:52:00,